Time;durP1;ratioP1;P1;durP2;ratioP2;P2;SDS_P1;SDS_P2;PMS_P1;PMS_P2;Temp;Humidity;BMP_temperature;BMP_pressure;BME280_temperature;BME280_humidity;BME280_pressure;Samples;Min_cycle;Max_cycle;Signal;HPM_P1;HPM_P2
2021/12/11 00:02:09;;;;;;;86.20;43.28;;;;;;;;;;5008514;28;20046;-62
2021/12/11 00:04:37;;;;;;;78.70;42.42;;;;;;;;;;5008064;28;20050;-61
2021/12/11 00:07:05;;;;;;;78.03;42.50;;;;;;;;;;5022941;28;20827;-62
2021/12/11 00:09:33;;;;;;;84.30;42.17;;;;;;;;;;5007650;28;20188;-61
2021/12/11 00:12:05;;;;;;;80.60;44.25;;;;;;;;;;5006727;28;20484;-61
2021/12/11 00:14:32;;;;;;;79.03;41.65;;;;;;;;;;5007476;28;20042;-61
2021/12/11 00:16:58;;;;;;;78.97;44.00;;;;;;;;;;5007685;28;20038;-61
2021/12/11 00:19:30;;;;;;;72.47;41.63;;;;;;;;;;5006687;28;20053;-60
2021/12/11 00:22:05;;;;;;;75.70;41.55;;;;;;;;;;5007243;28;20069;-60
2021/12/11 00:24:33;;;;;;;56.47;34.38;;;;;;;;;;5008515;28;20044;-60
2021/12/11 00:27:07;;;;;;;53.38;32.47;;;;;;;;;;5006740;28;20050;-58
2021/12/11 00:29:33;;;;;;;59.35;36.55;;;;;;;;;;5006311;28;20041;-59
2021/12/11 00:32:05;;;;;;;57.95;33.35;;;;;;;;;;5007858;28;20538;-59
2021/12/11 00:34:32;;;;;;;62.80;36.28;;;;;;;;;;5006726;28;20164;-59
2021/12/11 00:37:00;;;;;;;68.32;35.95;;;;;;;;;;5008162;28;20073;-59
2021/12/11 00:39:26;;;;;;;64.60;36.88;;;;;;;;;;5006243;28;20129;-59
2021/12/11 00:41:55;;;;;;;62.88;34.95;;;;;;;;;;5007968;28;20046;-58
2021/12/11 00:44:33;;;;;;;90.00;42.83;;;;;;;;;;5008308;28;21296;-61
2021/12/11 00:47:25;;;;;;;81.25;42.08;;;;;;;;;;5007234;28;20033;-60
2021/12/11 00:49:57;;;;;;;79.70;41.13;;;;;;;;;;4990151;28;20523;-60
2021/12/11 00:52:31;;;;;;;79.93;41.88;;;;;;;;;;5008046;28;20057;-60
2021/12/11 00:54:57;;;;;;;86.32;44.78;;;;;;;;;;5017757;28;20037;-60
2021/12/11 00:57:24;;;;;;;82.43;44.10;;;;;;;;;;5011602;28;20103;-59
2021/12/11 01:00:06;;;;;;;82.72;41.95;;;;;;;;;;5011661;28;20048;-61
2021/12/11 01:02:32;;;;;;;76.50;40.97;;;;;;;;;;5010601;28;20041;-60
2021/12/11 01:04:59;;;;;;;81.78;41.58;;;;;;;;;;5011116;28;20123;-60
2021/12/11 01:07:31;;;;;;;94.35;45.28;;;;;;;;;;5011723;28;20556;-59
2021/12/11 01:10:00;;;;;;;90.85;45.38;;;;;;;;;;5012164;28;20045;-60
2021/12/11 01:12:40;;;;;;;80.15;41.25;;;;;;;;;;5011637;28;20042;-60
2021/12/11 01:15:25;;;;;;;81.82;40.13;;;;;;;;;;5011573;28;20169;-60
2021/12/11 01:18:11;;;;;;;73.03;37.88;;;;;;;;;;5010201;28;20454;-61
2021/12/11 01:20:53;;;;;;;71.43;37.67;;;;;;;;;;5010200;28;20057;-61
2021/12/11 01:23:47;;;;;;;61.38;34.47;;;;;;;;;;5011260;28;20056;-61
2021/12/11 01:26:20;;;;;;;55.17;30.83;;;;;;;;;;5010787;28;20045;-60
2021/12/11 01:28:47;;;;;;;51.83;30.63;;;;;;;;;;5025818;28;20037;-60
2021/12/11 01:31:15;;;;;;;46.38;29.63;;;;;;;;;;5010498;28;20440;-60
2021/12/11 01:33:41;;;;;;;47.38;28.90;;;;;;;;;;5009703;28;20093;-60
2021/12/11 01:36:08;;;;;;;53.30;30.95;;;;;;;;;;5009811;28;20052;-60
2021/12/11 01:38:34;;;;;;;53.30;29.88;;;;;;;;;;5010123;28;20058;-60
2021/12/11 01:41:04;;;;;;;50.42;30.05;;;;;;;;;;5021043;28;20449;-61
2021/12/11 01:43:31;;;;;;;49.45;30.75;;;;;;;;;;5011515;28;20038;-60
2021/12/11 01:45:58;;;;;;;54.08;32.75;;;;;;;;;;4993388;28;20049;-60
2021/12/11 01:48:33;;;;;;;61.42;35.58;;;;;;;;;;5010988;28;20057;-61
2021/12/11 01:51:22;;;;;;;63.72;36.15;;;;;;;;;;4992796;28;20129;-60
2021/12/11 01:53:57;;;;;;;75.80;40.97;;;;;;;;;;5009756;28;20042;-60
2021/12/11 01:56:25;;;;;;;81.63;43.00;;;;;;;;;;5011526;28;20034;-60
2021/12/11 01:58:56;;;;;;;72.43;40.90;;;;;;;;;;5009991;28;20065;-60
2021/12/11 02:01:26;;;;;;;63.38;37.45;;;;;;;;;;5010691;28;20065;-60
2021/12/11 02:03:53;;;;;;;61.22;36.70;;;;;;;;;;5009541;28;20040;-60
2021/12/11 02:06:20;;;;;;;68.55;38.75;;;;;;;;;;5009838;28;20033;-60
2021/12/11 02:08:46;;;;;;;63.78;37.60;;;;;;;;;;5010822;28;20121;-59
2021/12/11 02:11:18;;;;;;;59.53;35.38;;;;;;;;;;5009057;28;20132;-59
2021/12/11 02:13:49;;;;;;;64.18;37.08;;;;;;;;;;5011727;28;20042;-58
2021/12/11 02:16:30;;;;;;;68.85;40.40;;;;;;;;;;5009282;28;20077;-62
2021/12/11 02:19:03;;;;;;;75.80;43.03;;;;;;;;;;5008990;28;20065;-60
2021/12/11 02:21:33;;;;;;;85.22;47.05;;;;;;;;;;5010435;28;20044;-59
2021/12/11 02:24:03;;;;;;;95.72;49.80;;;;;;;;;;5010845;28;20084;-60
2021/12/11 02:26:31;;;;;;;82.28;47.00;;;;;;;;;;5008774;28;20056;-60
2021/12/11 02:29:00;;;;;;;93.18;47.63;;;;;;;;;;5010170;28;20038;-60
2021/12/11 02:31:43;;;;;;;95.45;49.65;;;;;;;;;;5010979;28;20069;-60
2021/12/11 02:34:12;;;;;;;100.38;52.22;;;;;;;;;;5011581;28;20068;-60
2021/12/11 02:36:47;;;;;;;100.85;51.22;;;;;;;;;;5011288;28;20491;-61
2021/12/11 02:39:18;;;;;;;99.05;52.17;;;;;;;;;;5011216;28;20088;-60
2021/12/11 02:42:19;;;;;;;101.60;52.20;;;;;;;;;;5010454;28;20042;-61
2021/12/11 02:44:45;;;;;;;102.38;50.60;;;;;;;;;;4968922;28;20042;-61
2021/12/11 02:47:32;;;;;;;95.25;50.20;;;;;;;;;;4996648;28;20050;-61
2021/12/11 02:50:01;;;;;;;93.25;50.83;;;;;;;;;;5008914;28;20046;-61
2021/12/11 02:52:30;;;;;;;86.18;46.90;;;;;;;;;;5010190;28;20407;-61
2021/12/11 02:55:03;;;;;;;92.68;48.90;;;;;;;;;;5009143;28;20041;-61
2021/12/11 02:57:29;;;;;;;;;;;;;;;;;;5010582;28;20099;-61
2021/12/11 02:59:55;;;;;;;94.85;49.03;;;;;;;;;;5008910;28;19925;-61
2021/12/11 03:02:24;;;;;;;101.57;51.35;;;;;;;;;;5016850;28;20073;-61
2021/12/11 03:04:56;;;;;;;105.35;53.25;;;;;;;;;;5010174;28;20117;-61
2021/12/11 03:07:26;;;;;;;108.85;53.22;;;;;;;;;;5007830;28;20049;-61
2021/12/11 03:09:54;;;;;;;99.63;49.67;;;;;;;;;;5025325;28;20038;-63
2021/12/11 03:12:21;;;;;;;105.47;54.03;;;;;;;;;;5010473;28;20427;-61
2021/12/11 03:14:48;;;;;;;106.00;53.83;;;;;;;;;;5025020;28;20527;-61
2021/12/11 03:17:15;;;;;;;107.88;53.35;;;;;;;;;;5007893;28;20077;-61
2021/12/11 03:19:43;;;;;;;99.10;51.58;;;;;;;;;;5008437;28;20344;-62
2021/12/11 03:22:13;;;;;;;108.80;54.30;;;;;;;;;;5008839;28;20454;-61
2021/12/11 03:24:40;;;;;;;104.10;51.88;;;;;;;;;;5009687;28;20038;-61
2021/12/11 03:27:06;;;;;;;117.18;55.50;;;;;;;;;;5009634;28;20030;-61
2021/12/11 03:29:32;;;;;;;113.32;55.28;;;;;;;;;;5007517;28;20041;-62
2021/12/11 03:31:58;;;;;;;110.03;54.75;;;;;;;;;;5006802;28;20033;-61
2021/12/11 03:34:26;;;;;;;108.93;52.97;;;;;;;;;;5008379;28;20038;-61
2021/12/11 03:36:53;;;;;;;107.50;53.28;;;;;;;;;;5008509;28;20053;-63
2021/12/11 03:39:21;;;;;;;114.35;54.03;;;;;;;;;;5004640;28;20049;-61
2021/12/11 03:41:48;;;;;;;105.80;51.03;;;;;;;;;;5007781;28;20045;-61
2021/12/11 03:44:15;;;;;;;115.72;56.88;;;;;;;;;;5006835;28;20545;-61
2021/12/11 03:46:42;;;;;;;103.05;53.88;;;;;;;;;;5007416;28;20046;-61
2021/12/11 03:49:12;;;;;;;111.07;54.05;;;;;;;;;;5008409;28;20477;-61
2021/12/11 03:51:40;;;;;;;115.10;56.25;;;;;;;;;;5008543;28;20053;-61
2021/12/11 03:54:08;;;;;;;109.97;55.70;;;;;;;;;;5008727;28;20046;-61
2021/12/11 03:56:35;;;;;;;119.45;58.60;;;;;;;;;;5008542;28;20034;-62
2021/12/11 03:59:07;;;;;;;102.03;55.47;;;;;;;;;;5006815;28;20125;-62
2021/12/11 04:01:34;;;;;;;107.45;55.70;;;;;;;;;;5008215;28;20038;-61
2021/12/11 04:04:03;;;;;;;113.00;57.60;;;;;;;;;;5009027;28;20080;-61
2021/12/11 04:06:29;;;;;;;110.60;56.53;;;;;;;;;;5007916;28;20037;-61
2021/12/11 04:08:56;;;;;;;106.97;55.25;;;;;;;;;;5008974;28;20030;-61
2021/12/11 04:11:24;;;;;;;108.22;55.92;;;;;;;;;;5022668;28;20038;-62
2021/12/11 04:13:51;;;;;;;103.80;55.00;;;;;;;;;;5007798;28;20038;-62
2021/12/11 04:16:18;;;;;;;108.53;54.42;;;;;;;;;;5007885;28;20046;-62
2021/12/11 04:18:44;;;;;;;112.40;54.78;;;;;;;;;;5008863;28;20044;-61
2021/12/11 04:21:11;;;;;;;108.75;51.95;;;;;;;;;;5007778;28;20415;-62
2021/12/11 04:23:38;;;;;;;123.28;57.17;;;;;;;;;;5023407;28;20121;-61
2021/12/11 04:26:05;;;;;;;117.80;53.97;;;;;;;;;;4996363;28;20129;-61
2021/12/11 04:28:32;;;;;;;128.20;57.47;;;;;;;;;;5007844;28;20049;-61
2021/12/11 04:31:04;;;;;;;108.32;50.75;;;;;;;;;;5010308;28;20037;-61
2021/12/11 04:33:33;;;;;;;133.00;57.60;;;;;;;;;;5011375;28;20042;-60
2021/12/11 04:36:00;;;;;;;122.55;57.00;;;;;;;;;;5009959;28;20118;-61
2021/12/11 04:38:26;;;;;;;129.40;57.00;;;;;;;;;;5026738;28;20045;-60
2021/12/11 04:40:56;;;;;;;131.98;58.50;;;;;;;;;;5010298;28;20049;-59
2021/12/11 04:43:24;;;;;;;115.72;53.85;;;;;;;;;;5010493;28;20128;-59
2021/12/11 04:46:06;;;;;;;124.55;57.15;;;;;;;;;;5011641;28;20388;-60
2021/12/11 04:48:41;;;;;;;142.15;59.83;;;;;;;;;;5011974;28;20450;-60
2021/12/11 04:51:36;;;;;;;133.20;59.83;;;;;;;;;;5012172;28;20054;-61
2021/12/11 04:54:08;;;;;;;123.60;58.30;;;;;;;;;;5012030;28;20056;-60
2021/12/11 05:10:52;;;;;;;152.68;65.78;;;;;;;;;;5011354;28;20463;-60
2021/12/11 05:13:18;;;;;;;146.20;62.53;;;;;;;;;;5009649;28;20041;-59
2021/12/11 05:15:45;;;;;;;134.25;62.10;;;;;;;;;;5010778;28;20046;-59
2021/12/11 05:18:14;;;;;;;136.73;60.60;;;;;;;;;;5011321;28;20048;-59
2021/12/11 05:20:42;;;;;;;147.35;62.45;;;;;;;;;;5011206;28;20077;-59
2021/12/11 05:23:08;;;;;;;136.30;60.25;;;;;;;;;;5009463;28;20045;-59
2021/12/11 05:25:34;;;;;;;140.02;62.20;;;;;;;;;;5010963;28;20094;-59
2021/12/11 05:28:00;;;;;;;129.82;60.30;;;;;;;;;;5010743;28;20048;-61
2021/12/11 05:30:31;;;;;;;125.75;54.00;;;;;;;;;;5010363;28;20080;-61
2021/12/11 05:32:59;;;;;;;123.28;56.08;;;;;;;;;;5011459;28;20120;-61
2021/12/11 05:35:26;;;;;;;123.53;58.38;;;;;;;;;;5010367;28;20042;-61
2021/12/11 05:37:52;;;;;;;118.05;55.85;;;;;;;;;;5010430;28;20041;-61
2021/12/11 05:40:22;;;;;;;124.38;58.88;;;;;;;;;;5009550;28;20042;-61
2021/12/11 05:42:49;;;;;;;118.55;56.50;;;;;;;;;;5009279;28;20107;-62
2021/12/11 05:45:15;;;;;;;112.78;54.65;;;;;;;;;;5010203;28;20128;-59
2021/12/11 05:47:41;;;;;;;112.53;54.85;;;;;;;;;;5008955;28;20116;-59
2021/12/11 05:50:10;;;;;;;111.43;54.78;;;;;;;;;;5008924;28;20041;-61
2021/12/11 05:52:36;;;;;;;108.25;53.10;;;;;;;;;;5007217;28;20045;-60
2021/12/11 05:55:07;;;;;;;106.95;53.20;;;;;;;;;;5008966;28;20045;-60
2021/12/11 05:57:36;;;;;;;105.75;52.38;;;;;;;;;;5010358;28;20034;-61
2021/12/11 06:00:03;;;;;;;110.63;54.28;;;;;;;;;;5007726;28;20141;-60
2021/12/11 06:02:30;;;;;;;101.45;51.67;;;;;;;;;;5010660;28;20034;-60
2021/12/11 06:04:59;;;;;;;110.70;54.75;;;;;;;;;;5009941;28;20168;-60
2021/12/11 06:07:26;;;;;;;120.00;56.17;;;;;;;;;;5008996;28;20041;-60
2021/12/11 06:09:54;;;;;;;119.32;53.20;;;;;;;;;;5010005;28;20117;-60
2021/12/11 06:12:21;;;;;;;117.60;57.55;;;;;;;;;;5009761;28;20511;-59
2021/12/11 06:14:50;;;;;;;120.22;55.28;;;;;;;;;;5010143;28;20081;-60
2021/12/11 06:17:18;;;;;;;130.82;57.05;;;;;;;;;;5008614;28;20050;-60
2021/12/11 06:19:51;;;;;;;114.07;54.60;;;;;;;;;;5009914;28;20131;-59
2021/12/11 06:22:18;;;;;;;113.95;51.22;;;;;;;;;;5010038;28;20042;-60
2021/12/11 06:24:44;;;;;;;118.78;57.53;;;;;;;;;;5009805;28;20049;-60
2021/12/11 06:27:10;;;;;;;121.63;55.35;;;;;;;;;;5008416;28;20045;-62
2021/12/11 06:29:36;;;;;;;110.85;54.33;;;;;;;;;;5008010;28;20045;-62
2021/12/11 06:32:03;;;;;;;126.05;56.97;;;;;;;;;;5008240;28;20053;-61
2021/12/11 06:34:31;;;;;;;119.13;56.38;;;;;;;;;;5008171;28;20080;-62
2021/12/11 06:36:57;;;;;;;120.53;56.95;;;;;;;;;;5007140;28;20459;-62
2021/12/11 06:39:25;;;;;;;115.95;55.45;;;;;;;;;;5010193;28;20041;-62
2021/12/11 06:41:52;;;;;;;112.70;56.00;;;;;;;;;;5006508;28;20046;-62
2021/12/11 06:44:20;;;;;;;116.85;58.30;;;;;;;;;;5008100;28;20034;-62
2021/12/11 06:46:48;;;;;;;121.05;58.92;;;;;;;;;;5007020;28;20076;-62
2021/12/11 06:49:14;;;;;;;118.07;55.92;;;;;;;;;;5007437;28;20471;-61
2021/12/11 06:51:41;;;;;;;109.65;55.67;;;;;;;;;;5008941;28;20041;-62
2021/12/11 06:54:10;;;;;;;117.03;56.70;;;;;;;;;;5008828;28;20052;-62
2021/12/11 06:56:38;;;;;;;107.07;54.00;;;;;;;;;;5007304;28;20046;-62
2021/12/11 06:59:04;;;;;;;108.93;54.80;;;;;;;;;;5009622;28;20478;-61
2021/12/11 07:01:30;;;;;;;106.53;53.88;;;;;;;;;;5008875;28;20049;-61
2021/12/11 07:03:59;;;;;;;106.20;52.63;;;;;;;;;;5008834;28;20683;-63
2021/12/11 07:06:25;;;;;;;115.50;55.92;;;;;;;;;;5008806;28;20176;-61
2021/12/11 07:08:53;;;;;;;117.80;56.63;;;;;;;;;;5007886;28;20162;-61
2021/12/11 07:11:19;;;;;;;115.47;54.60;;;;;;;;;;4990979;28;20646;-61
2021/12/11 07:13:45;;;;;;;114.97;56.75;;;;;;;;;;5007801;28;20520;-61
2021/12/11 07:16:12;;;;;;;109.80;54.42;;;;;;;;;;5008180;28;20069;-61
2021/12/11 07:18:38;;;;;;;117.90;57.42;;;;;;;;;;5008758;28;20358;-61
2021/12/11 07:21:05;;;;;;;114.30;57.25;;;;;;;;;;5007969;28;20061;-61
2021/12/11 07:23:31;;;;;;;114.93;55.20;;;;;;;;;;5008400;28;20499;-61
2021/12/11 07:26:00;;;;;;;119.00;58.20;;;;;;;;;;5009597;28;20045;-60
2021/12/11 07:28:26;;;;;;;118.75;57.00;;;;;;;;;;5006657;28;20072;-60
2021/12/11 07:30:54;;;;;;;118.35;58.40;;;;;;;;;;5007237;28;20045;-61
2021/12/11 07:33:20;;;;;;;123.55;57.53;;;;;;;;;;5008929;28;20512;-61
2021/12/11 07:35:47;;;;;;;129.65;59.03;;;;;;;;;;5006702;28;21401;-62
2021/12/11 07:38:14;;;;;;;137.35;62.72;;;;;;;;;;5009429;28;20480;-61
2021/12/11 07:40:42;;;;;;;130.93;62.42;;;;;;;;;;5009701;28;20048;-61
2021/12/11 07:43:10;;;;;;;130.00;59.85;;;;;;;;;;5008185;28;20046;-61
2021/12/11 07:45:36;;;;;;;131.52;62.20;;;;;;;;;;5009685;28;20563;-61
2021/12/11 07:48:03;;;;;;;125.38;59.88;;;;;;;;;;5009844;28;20099;-59
2021/12/11 07:50:29;;;;;;;128.77;61.35;;;;;;;;;;5008491;28;20542;-61
2021/12/11 07:52:56;;;;;;;130.98;60.58;;;;;;;;;;5008571;28;20129;-59
2021/12/11 07:55:22;;;;;;;132.73;62.83;;;;;;;;;;5008308;28;20108;-59
2021/12/11 07:57:48;;;;;;;134.65;61.10;;;;;;;;;;5007689;28;20130;-60
2021/12/11 08:00:17;;;;;;;129.43;62.50;;;;;;;;;;5008942;28;20555;-60
2021/12/11 08:02:43;;;;;;;114.55;55.88;;;;;;;;;;5007945;28;20077;-60
2021/12/11 08:05:10;;;;;;;137.13;65.00;;;;;;;;;;5008323;28;20038;-59
2021/12/11 08:07:36;;;;;;;128.93;62.55;;;;;;;;;;5006768;28;20049;-60
2021/12/11 08:10:03;;;;;;;117.88;60.25;;;;;;;;;;5008099;28;20033;-59
2021/12/11 08:12:30;;;;;;;114.75;57.95;;;;;;;;;;5007025;28;20507;-59
2021/12/11 08:14:56;;;;;;;117.35;61.63;;;;;;;;;;5007632;28;20036;-59
2021/12/11 08:17:22;;;;;;;127.47;61.92;;;;;;;;;;5008297;28;20097;-61
2021/12/11 08:19:48;;;;;;;125.40;61.75;;;;;;;;;;5007802;28;20042;-61
2021/12/11 08:22:14;;;;;;;122.22;63.03;;;;;;;;;;5009605;28;20400;-62
2021/12/11 08:24:40;;;;;;;125.05;60.90;;;;;;;;;;5009384;28;20081;-61
2021/12/11 08:27:12;;;;;;;120.28;62.75;;;;;;;;;;5025066;28;20568;-61
2021/12/11 08:29:39;;;;;;;117.13;63.30;;;;;;;;;;5008107;28;20488;-61
2021/12/11 08:32:06;;;;;;;117.55;60.83;;;;;;;;;;5023763;28;20472;-61
2021/12/11 08:34:32;;;;;;;117.45;61.67;;;;;;;;;;4989247;28;20042;-61
2021/12/11 08:36:59;;;;;;;126.57;61.33;;;;;;;;;;4991316;28;20042;-61
2021/12/11 08:39:26;;;;;;;120.43;59.97;;;;;;;;;;5005282;28;20496;-61
2021/12/11 08:41:53;;;;;;;114.63;61.38;;;;;;;;;;4988754;28;20105;-62
2021/12/11 08:44:20;;;;;;;122.25;62.10;;;;;;;;;;4988023;28;20051;-62
2021/12/11 08:46:51;;;;;;;123.05;63.85;;;;;;;;;;4988195;28;20061;-62
2021/12/11 08:49:19;;;;;;;117.57;60.33;;;;;;;;;;4987810;28;20044;-62
2021/12/11 08:51:48;;;;;;;108.53;59.25;;;;;;;;;;4987974;28;20416;-62
2021/12/11 08:54:15;;;;;;;106.70;58.35;;;;;;;;;;4988236;28;20496;-62
2021/12/11 08:56:41;;;;;;;111.30;61.00;;;;;;;;;;4989436;28;20046;-62
2021/12/11 08:59:09;;;;;;;105.68;57.05;;;;;;;;;;4987820;28;20163;-62
2021/12/11 09:01:42;;;;;;;108.97;58.08;;;;;;;;;;4988533;28;20054;-60
2021/12/11 09:04:28;;;;;;;99.10;55.92;;;;;;;;;;4988127;28;20433;-60
2021/12/11 09:06:54;;;;;;;94.95;54.60;;;;;;;;;;4987983;28;20061;-60
2021/12/11 09:09:27;;;;;;;112.72;56.13;;;;;;;;;;4988130;28;20046;-62
2021/12/11 09:12:11;;;;;;;94.13;52.15;;;;;;;;;;4990482;28;20045;-62
2021/12/11 09:14:41;;;;;;;93.70;52.92;;;;;;;;;;5005568;28;20042;-61
2021/12/11 09:17:07;;;;;;;83.20;48.42;;;;;;;;;;4992339;28;20124;-62
2021/12/11 09:19:38;;;;;;;90.03;52.10;;;;;;;;;;4993100;28;20106;-62
2021/12/11 09:22:04;;;;;;;81.15;48.92;;;;;;;;;;4992702;28;20050;-62
2021/12/11 09:24:42;;;;;;;77.80;47.95;;;;;;;;;;4991035;28;20046;-61
2021/12/11 09:27:14;;;;;;;78.55;47.80;;;;;;;;;;4992541;28;20056;-61
2021/12/11 09:29:43;;;;;;;75.30;46.40;;;;;;;;;;4990877;28;20275;-61
2021/12/11 09:32:09;;;;;;;75.38;45.35;;;;;;;;;;4992506;28;20046;-61
2021/12/11 09:34:56;;;;;;;67.25;41.55;;;;;;;;;;4992324;28;20053;-61
2021/12/11 09:37:22;;;;;;;62.97;40.80;;;;;;;;;;4991944;28;20143;-61
2021/12/11 09:39:53;;;;;;;60.45;39.97;;;;;;;;;;4990963;28;20540;-61
2021/12/11 09:42:19;;;;;;;59.65;38.95;;;;;;;;;;4992382;28;20128;-61
2021/12/11 09:45:07;;;;;;;56.90;38.38;;;;;;;;;;5007111;28;20082;-61
2021/12/11 09:47:38;;;;;;;56.45;36.33;;;;;;;;;;4990704;28;20050;-61
2021/12/11 09:50:16;;;;;;;52.25;35.55;;;;;;;;;;4990889;28;20295;-61
2021/12/11 09:52:45;;;;;;;46.97;31.20;;;;;;;;;;4991858;28;20066;-63
2021/12/11 09:55:20;;;;;;;52.80;35.00;;;;;;;;;;4990032;28;20054;-63
2021/12/11 09:57:48;;;;;;;50.03;32.67;;;;;;;;;;4992196;28;20508;-63
2021/12/11 10:00:20;;;;;;;48.97;34.17;;;;;;;;;;4990371;28;20479;-63
2021/12/11 10:02:46;;;;;;;52.80;34.22;;;;;;;;;;4991828;28;20042;-62
2021/12/11 10:05:36;;;;;;;54.70;33.92;;;;;;;;;;4974023;28;20067;-63
2021/12/11 10:11:02;;;;;;;38.58;28.13;;;;;;;;;;4991675;28;20110;-63
2021/12/11 10:13:32;;;;;;;37.70;26.67;;;;;;;;;;4990580;28;20058;-62
2021/12/11 10:15:59;;;;;;;40.33;27.67;;;;;;;;;;4989925;28;20049;-63
2021/12/11 10:18:26;;;;;;;38.70;28.23;;;;;;;;;;4990261;28;20427;-61
2021/12/11 10:20:56;;;;;;;36.63;25.40;;;;;;;;;;4991238;28;20045;-62
2021/12/11 10:23:24;;;;;;;36.22;24.88;;;;;;;;;;4990639;28;20128;-61
2021/12/11 10:25:51;;;;;;;31.38;23.33;;;;;;;;;;4989933;28;20042;-61
2021/12/11 10:28:19;;;;;;;31.35;22.95;;;;;;;;;;4991391;28;20144;-61
2021/12/11 10:30:50;;;;;;;38.97;26.30;;;;;;;;;;5005913;28;20054;-61
2021/12/11 10:33:18;;;;;;;34.33;22.70;;;;;;;;;;4991270;28;20420;-61
2021/12/11 10:35:46;;;;;;;31.17;20.80;;;;;;;;;;4991116;28;20046;-61
2021/12/11 10:38:13;;;;;;;34.15;22.83;;;;;;;;;;4991183;28;20373;-60
2021/12/11 10:40:41;;;;;;;32.90;23.15;;;;;;;;;;4991326;28;20500;-60
2021/12/11 10:43:18;;;;;;;31.48;22.40;;;;;;;;;;4992546;28;20048;-60
2021/12/11 10:45:45;;;;;;;33.38;23.58;;;;;;;;;;4990879;28;20056;-60
2021/12/11 10:48:13;;;;;;;30.02;22.67;;;;;;;;;;4991156;28;20039;-60
2021/12/11 10:50:42;;;;;;;31.60;21.80;;;;;;;;;;4992022;28;20048;-61
2021/12/11 10:53:10;;;;;;;26.50;20.58;;;;;;;;;;4991746;28;20109;-60
2021/12/11 10:55:37;;;;;;;29.30;22.15;;;;;;;;;;4992180;28;20394;-60
2021/12/11 10:58:09;;;;;;;28.67;21.23;;;;;;;;;;4990730;28;20117;-60
2021/12/11 11:00:37;;;;;;;26.85;19.98;;;;;;;;;;4992356;28;20116;-61
2021/12/11 11:03:06;;;;;;;29.98;21.60;;;;;;;;;;4992026;28;20076;-60
2021/12/11 11:05:32;;;;;;;28.38;20.40;;;;;;;;;;4990142;28;20077;-61
2021/12/11 11:07:58;;;;;;;26.63;19.67;;;;;;;;;;4991839;28;20084;-61
2021/12/11 11:10:32;;;;;;;24.95;19.35;;;;;;;;;;4991586;28;20134;-61
2021/12/11 11:12:59;;;;;;;28.42;19.55;;;;;;;;;;4989189;28;20139;-62
2021/12/11 11:15:26;;;;;;;24.80;20.05;;;;;;;;;;4988251;28;20133;-61
2021/12/11 11:17:53;;;;;;;28.27;18.52;;;;;;;;;;4989317;28;20473;-61
2021/12/11 11:20:23;;;;;;;24.92;18.77;;;;;;;;;;4989049;28;20497;-61
2021/12/11 11:22:49;;;;;;;25.60;19.70;;;;;;;;;;4990162;28;20046;-61
2021/12/11 11:25:23;;;;;;;25.48;19.50;;;;;;;;;;4988629;28;20078;-62
2021/12/11 11:27:52;;;;;;;28.50;19.67;;;;;;;;;;4988847;28;20046;-62
2021/12/11 11:30:20;;;;;;;23.98;18.77;;;;;;;;;;4990179;28;20042;-62
2021/12/11 11:32:47;;;;;;;25.33;18.40;;;;;;;;;;4988812;28;20030;-62
2021/12/11 11:35:14;;;;;;;25.98;20.15;;;;;;;;;;5005177;28;20046;-62
2021/12/11 11:37:41;;;;;;;27.50;19.00;;;;;;;;;;4987920;28;20045;-62
2021/12/11 11:40:09;;;;;;;26.30;19.48;;;;;;;;;;4988746;28;20049;-61
2021/12/11 11:42:36;;;;;;;27.10;20.17;;;;;;;;;;4988887;28;20046;-62
2021/12/11 11:45:03;;;;;;;25.25;20.52;;;;;;;;;;4988659;28;20412;-62
2021/12/11 11:47:29;;;;;;;32.17;21.05;;;;;;;;;;4988262;28;20081;-61
2021/12/11 11:49:59;;;;;;;32.28;21.42;;;;;;;;;;4988510;28;20057;-62
2021/12/11 11:52:26;;;;;;;30.05;22.33;;;;;;;;;;4988231;28;20065;-62
2021/12/11 11:54:53;;;;;;;35.53;21.90;;;;;;;;;;4988713;28;20050;-61
2021/12/11 11:57:22;;;;;;;33.70;21.08;;;;;;;;;;4988096;28;20046;-61
2021/12/11 11:59:50;;;;;;;30.92;22.73;;;;;;;;;;4988446;28;20105;-61
2021/12/11 12:02:18;;;;;;;33.90;23.45;;;;;;;;;;4989535;28;20121;-61
2021/12/11 12:04:44;;;;;;;31.15;22.40;;;;;;;;;;4988781;28;20065;-61
2021/12/11 12:07:11;;;;;;;29.75;21.92;;;;;;;;;;4989280;28;20367;-61
2021/12/11 12:09:39;;;;;;;29.60;21.58;;;;;;;;;;4988476;28;20046;-60
2021/12/11 12:12:09;;;;;;;33.33;22.90;;;;;;;;;;4988318;28;20125;-60
2021/12/11 12:14:35;;;;;;;34.65;21.67;;;;;;;;;;4989917;28;20459;-59
2021/12/11 12:17:02;;;;;;;33.33;22.60;;;;;;;;;;5004804;28;20057;-61
2021/12/11 12:19:29;;;;;;;30.65;21.40;;;;;;;;;;4987947;28;20116;-61
2021/12/11 12:21:57;;;;;;;28.40;21.75;;;;;;;;;;4972359;28;20492;-61
2021/12/11 12:24:26;;;;;;;30.85;22.75;;;;;;;;;;4988115;28;20053;-61
2021/12/11 12:26:52;;;;;;;29.85;21.23;;;;;;;;;;4988483;28;20042;-61
2021/12/11 12:29:19;;;;;;;28.45;21.83;;;;;;;;;;4989110;28;20046;-61
2021/12/11 12:31:48;;;;;;;30.05;22.20;;;;;;;;;;4988550;28;20496;-60
2021/12/11 12:34:15;;;;;;;32.05;23.15;;;;;;;;;;4989678;28;20385;-60
2021/12/11 12:36:44;;;;;;;29.92;22.30;;;;;;;;;;4988372;28;20121;-60
2021/12/11 12:39:12;;;;;;;31.02;23.83;;;;;;;;;;4987731;28;20050;-60
2021/12/11 12:41:40;;;;;;;35.05;23.92;;;;;;;;;;4988331;28;20502;-61
2021/12/11 12:46:41;;;;;;;30.45;22.00;;;;;;;;;;4989452;28;20472;-61
2021/12/11 12:49:07;;;;;;;33.13;23.45;;;;;;;;;;4989319;28;20130;-60
2021/12/11 12:51:35;;;;;;;32.20;23.60;;;;;;;;;;4992330;28;20046;-60
2021/12/11 12:54:03;;;;;;;32.63;22.63;;;;;;;;;;5003074;28;20396;-61
2021/12/11 12:56:31;;;;;;;30.20;23.05;;;;;;;;;;5011990;28;20042;-60
2021/12/11 12:59:03;;;;;;;32.35;23.75;;;;;;;;;;5012042;28;20046;-60
2021/12/11 13:01:34;;;;;;;34.00;24.65;;;;;;;;;;5011641;28;20499;-60
2021/12/11 13:04:05;;;;;;;34.13;23.08;;;;;;;;;;5013329;28;20132;-60
2021/12/11 13:06:37;;;;;;;38.22;26.30;;;;;;;;;;5011681;28;20057;-60
2021/12/11 13:09:11;;;;;;;31.88;23.00;;;;;;;;;;5012906;28;20085;-60
2021/12/11 13:11:43;;;;;;;32.35;25.08;;;;;;;;;;5011784;28;20137;-61
2021/12/11 13:14:10;;;;;;;37.33;27.05;;;;;;;;;;5011788;28;20112;-60
2021/12/11 13:16:38;;;;;;;34.70;25.17;;;;;;;;;;5011879;28;20049;-61
2021/12/11 13:19:09;;;;;;;37.65;24.58;;;;;;;;;;5006513;28;20432;-61
2021/12/11 13:21:41;;;;;;;33.15;24.92;;;;;;;;;;5018892;28;20050;-61
2021/12/11 13:24:10;;;;;;;37.17;26.05;;;;;;;;;;5011296;28;20082;-61
2021/12/11 13:26:37;;;;;;;33.83;24.70;;;;;;;;;;5011771;28;20046;-61
2021/12/11 13:29:06;;;;;;;33.92;23.65;;;;;;;;;;5011074;28;20125;-61
2021/12/11 13:31:38;;;;;;;34.90;25.50;;;;;;;;;;5010764;28;20042;-61
2021/12/11 13:34:05;;;;;;;33.45;23.55;;;;;;;;;;5012700;28;20521;-61
2021/12/11 13:36:32;;;;;;;31.38;23.95;;;;;;;;;;5027444;28;20119;-61
2021/12/11 13:38:58;;;;;;;32.03;23.80;;;;;;;;;;5011011;28;20038;-61
2021/12/11 13:41:36;;;;;;;31.70;22.77;;;;;;;;;;5010692;28;20060;-61
2021/12/11 13:44:03;;;;;;;31.92;20.95;;;;;;;;;;5011065;28;20049;-61
2021/12/11 13:46:29;;;;;;;29.23;22.10;;;;;;;;;;5011228;28;20099;-61
2021/12/11 13:48:59;;;;;;;31.55;23.20;;;;;;;;;;5009945;28;20053;-61
2021/12/11 13:51:27;;;;;;;31.65;24.02;;;;;;;;;;5012086;28;20050;-61
2021/12/11 13:53:54;;;;;;;29.95;23.25;;;;;;;;;;5010859;28;20050;-61
2021/12/11 13:56:22;;;;;;;35.22;24.80;;;;;;;;;;5011991;28;20044;-61
2021/12/11 13:58:50;;;;;;;31.67;21.92;;;;;;;;;;5010485;28;20052;-61
2021/12/11 14:01:20;;;;;;;32.63;25.25;;;;;;;;;;5011277;28;20046;-61
2021/12/11 14:03:47;;;;;;;34.03;24.90;;;;;;;;;;5025233;28;20104;-61
2021/12/11 14:06:13;;;;;;;34.88;25.67;;;;;;;;;;5008225;28;20042;-61
2021/12/11 14:08:40;;;;;;;38.47;25.75;;;;;;;;;;5010416;28;20040;-61
2021/12/11 14:11:12;;;;;;;39.42;26.30;;;;;;;;;;5010160;28;20054;-60
2021/12/11 14:13:39;;;;;;;36.38;27.33;;;;;;;;;;5010073;28;20046;-61
2021/12/11 14:16:06;;;;;;;38.25;28.58;;;;;;;;;;5009672;28;20038;-60
2021/12/11 14:18:32;;;;;;;43.20;31.08;;;;;;;;;;5010123;28;20038;-60
2021/12/11 14:20:58;;;;;;;42.25;30.20;;;;;;;;;;5010048;28;20053;-60
2021/12/11 14:23:26;;;;;;;45.38;32.08;;;;;;;;;;5011255;28;20093;-60
2021/12/11 14:25:53;;;;;;;44.70;30.15;;;;;;;;;;5026899;28;20045;-60
2021/12/11 14:28:22;;;;;;;46.08;34.03;;;;;;;;;;5009983;28;20078;-60
2021/12/11 14:30:51;;;;;;;48.25;33.85;;;;;;;;;;5026440;28;20104;-60
2021/12/11 14:33:18;;;;;;;47.20;31.95;;;;;;;;;;5011233;28;20038;-59
2021/12/11 14:35:44;;;;;;;51.30;34.97;;;;;;;;;;5010228;28;20046;-59
2021/12/11 14:38:12;;;;;;;51.08;33.58;;;;;;;;;;5009621;28;20404;-61
2021/12/11 14:40:40;;;;;;;53.55;33.50;;;;;;;;;;5010536;28;20045;-61
2021/12/11 14:43:07;;;;;;;53.47;35.20;;;;;;;;;;5011416;28;20117;-60